createdAt,value
2022-09-04T00:01:50.894Z,19.80
2022-09-04T00:04:44.915Z,19.80
2022-09-04T00:07:39.172Z,19.80
2022-09-04T00:10:32.605Z,19.90
2022-09-04T00:13:22.730Z,19.80
2022-09-04T00:16:14.776Z,19.70
2022-09-04T00:19:09.789Z,19.70
2022-09-04T00:22:00.363Z,19.70
2022-09-04T00:24:55.129Z,19.70
2022-09-04T00:27:45.631Z,19.70
2022-09-04T00:30:34.070Z,19.60
2022-09-04T00:33:25.432Z,19.60
2022-09-04T00:36:15.256Z,19.60
2022-09-04T00:39:08.940Z,19.60
2022-09-04T00:42:09.607Z,19.60
2022-09-04T00:45:09.865Z,19.60
2022-09-04T00:48:17.845Z,19.50
2022-09-04T00:51:30.908Z,19.50
2022-09-04T00:54:42.639Z,19.50
2022-09-04T00:58:05.368Z,19.50
2022-09-04T01:00:53.901Z,19.50
2022-09-04T01:04:24.717Z,19.50
2022-09-04T01:07:27.475Z,19.50
2022-09-04T01:10:42.049Z,19.50
2022-09-04T01:13:36.246Z,19.40
2022-09-04T01:16:27.463Z,19.40
2022-09-04T01:19:30.928Z,19.40
2022-09-04T01:22:33.712Z,19.40
2022-09-04T01:25:42.602Z,19.40
2022-09-04T01:28:35.996Z,19.40
2022-09-04T01:31:29.233Z,19.40
2022-09-04T01:34:30.443Z,19.40
2022-09-04T01:37:31.976Z,19.40
2022-09-04T01:40:35.654Z,19.40
2022-09-04T01:43:26.356Z,19.40
2022-09-04T01:46:40.330Z,19.40
2022-09-04T01:49:34.282Z,19.40
2022-09-04T01:52:38.183Z,19.40
2022-09-04T01:55:31.479Z,19.40
2022-09-04T01:58:26.629Z,19.30
2022-09-04T02:01:21.131Z,19.30
2022-09-04T02:04:18.190Z,19.30
2022-09-04T02:07:12.947Z,19.30
2022-09-04T02:10:09.174Z,19.30
2022-09-04T02:13:07.391Z,19.30
2022-09-04T02:16:05.332Z,19.20
2022-09-04T02:19:00.600Z,19.20
2022-09-04T02:21:52.391Z,19.20
2022-09-04T02:24:45.038Z,19.20
2022-09-04T02:27:38.935Z,19.20
2022-09-04T02:30:27.379Z,19.20
2022-09-04T02:33:21.566Z,19.20
2022-09-04T02:36:14.384Z,19.20
2022-09-04T02:39:09.695Z,19.20
2022-09-04T02:42:04.977Z,19.20
2022-09-04T02:45:02.163Z,19.10
2022-09-04T02:47:53.482Z,19.10
2022-09-04T02:50:59.042Z,19.10
2022-09-04T02:53:58.926Z,19.10
2022-09-04T02:56:53.368Z,19.10
2022-09-04T02:59:52.745Z,19.10
2022-09-04T03:02:44.837Z,19.10
2022-09-04T03:05:34.999Z,19.20
2022-09-04T03:08:29.340Z,19.20
2022-09-04T03:11:26.554Z,19.20
2022-09-04T03:14:18.678Z,19.20
2022-09-04T03:17:13.142Z,19.20
2022-09-04T03:20:04.619Z,19.20
2022-09-04T03:22:58.607Z,19.20
2022-09-04T03:26:20.794Z,19.20
2022-09-04T03:29:14.233Z,19.20
2022-09-04T03:32:15.879Z,19.10
2022-09-04T03:35:08.798Z,19.10
2022-09-04T03:38:10.197Z,19.10
2022-09-04T03:41:06.129Z,19.20
2022-09-04T03:44:08.245Z,19.10
2022-09-04T03:47:03.164Z,19.20
2022-09-04T03:50:02.683Z,19.20
2022-09-04T03:52:57.044Z,19.20
2022-09-04T03:56:16.551Z,19.20
2022-09-04T03:59:08.218Z,19.20
2022-09-04T04:02:01.003Z,19.20
2022-09-04T04:05:14.499Z,19.20
2022-09-04T04:08:16.252Z,19.20
2022-09-04T04:11:18.989Z,19.30
2022-09-04T04:14:37.549Z,19.30
2022-09-04T04:17:54.288Z,19.30
2022-09-04T04:20:46.075Z,19.30
2022-09-04T04:24:27.080Z,19.30
2022-09-04T04:27:28.607Z,19.30
2022-09-04T04:30:19.019Z,19.30
2022-09-04T04:33:23.882Z,19.30
2022-09-04T04:36:20.129Z,19.20
2022-09-04T04:39:15.682Z,19.20
2022-09-04T04:42:18.522Z,19.20
2022-09-04T04:45:33.406Z,19.20
2022-09-04T04:49:10.549Z,19.20
2022-09-04T04:52:15.813Z,19.20
2022-09-04T04:55:21.260Z,19.10
2022-09-04T04:58:27.229Z,19.10
2022-09-04T05:01:26.378Z,19.10
2022-09-04T05:04:31.654Z,19.10
2022-09-04T05:07:31.259Z,19.10
2022-09-04T05:10:22.607Z,19.10
2022-09-04T05:13:17.787Z,19.10
2022-09-04T05:16:18.159Z,19.10
2022-09-04T05:19:12.143Z,19.10
2022-09-04T05:22:09.346Z,19.10
2022-09-04T05:25:06.551Z,19.10
2022-09-04T05:28:03.494Z,19.10
2022-09-04T05:30:57.128Z,19.20
2022-09-04T05:33:52.629Z,19.10
2022-09-04T05:36:48.558Z,19.10
2022-09-04T05:39:47.886Z,19.20
2022-09-04T05:42:45.444Z,19.20
2022-09-04T05:45:47.271Z,19.20
2022-09-04T05:48:43.434Z,19.20
2022-09-04T05:51:54.166Z,19.20
2022-09-04T05:54:57.488Z,19.30
2022-09-04T05:57:56.063Z,19.40
2022-09-04T06:00:48.290Z,19.70
2022-09-04T06:04:11.059Z,20.00
2022-09-04T06:07:04.830Z,20.40
2022-09-04T06:10:00.730Z,20.80
2022-09-04T06:13:24.524Z,21.30
2022-09-04T06:16:28.287Z,21.80
2022-09-04T06:19:48.497Z,22.30
2022-09-04T06:23:02.441Z,22.70
2022-09-04T06:26:22.470Z,23.10
2022-09-04T06:29:28.827Z,23.50
2022-09-04T06:32:56.618Z,23.80
2022-09-04T06:36:21.535Z,24.20
2022-09-04T06:39:41.733Z,24.70
2022-09-04T06:42:49.569Z,25.10
2022-09-04T06:45:49.370Z,25.50
2022-09-04T06:48:48.107Z,25.80
2022-09-04T06:51:58.048Z,26.00
2022-09-04T06:54:54.012Z,26.10
2022-09-04T06:58:05.299Z,26.10
2022-09-04T07:00:56.021Z,26.20
2022-09-04T07:03:57.082Z,26.30
2022-09-04T07:07:00.143Z,26.40
2022-09-04T07:09:49.758Z,26.40
2022-09-04T07:13:23.542Z,26.50
2022-09-04T07:16:33.754Z,26.50
2022-09-04T07:20:08.390Z,26.50
2022-09-04T07:23:17.328Z,26.70
2022-09-04T07:26:17.247Z,26.90
2022-09-04T07:29:25.111Z,27.20
2022-09-04T07:32:18.766Z,27.30
2022-09-04T07:35:11.503Z,27.50
2022-09-04T07:38:04.609Z,27.70
2022-09-04T07:40:56.430Z,27.90
2022-09-04T07:43:54.595Z,28.00
2022-09-04T07:46:48.254Z,28.20
2022-09-04T07:49:38.200Z,28.30
2022-09-04T07:52:43.561Z,28.40
2022-09-04T07:55:41.374Z,28.40
2022-09-04T07:59:20.412Z,28.40
2022-09-04T08:02:35.621Z,28.40
2022-09-04T08:05:25.458Z,28.30
2022-09-04T08:08:57.177Z,28.10
2022-09-04T08:11:54.731Z,28.00
2022-09-04T08:14:55.930Z,27.70
2022-09-04T08:18:21.266Z,27.50
2022-09-04T08:21:18.732Z,27.40
2022-09-04T08:24:47.218Z,27.20
2022-09-04T08:28:17.665Z,27.10
2022-09-04T08:31:09.079Z,27.20
2022-09-04T08:34:25.437Z,27.30
2022-09-04T08:37:21.440Z,27.40
2022-09-04T08:40:42.983Z,27.50
2022-09-04T08:44:06.434Z,27.60
2022-09-04T08:47:31.865Z,27.60
2022-09-04T08:51:15.788Z,27.70
2022-09-04T08:54:58.983Z,27.70
2022-09-04T08:58:17.374Z,27.60
2022-09-04T09:01:38.669Z,27.60
2022-09-04T09:04:41.709Z,27.60
2022-09-04T09:08:09.354Z,27.70
2022-09-04T09:11:44.441Z,27.70
2022-09-04T09:15:28.089Z,27.80
2022-09-04T09:18:35.737Z,27.80
2022-09-04T09:21:31.985Z,28.00
2022-09-04T09:25:15.621Z,27.80
2022-09-04T09:29:06.261Z,27.70
2022-09-04T09:32:45.698Z,27.70
2022-09-04T09:36:17.415Z,27.50
2022-09-04T09:39:35.254Z,27.50
2022-09-04T09:42:59.169Z,27.40
2022-09-04T09:46:54.318Z,27.30
2022-09-04T09:50:28.294Z,27.30
2022-09-04T09:54:05.956Z,27.40
2022-09-04T09:57:41.199Z,27.60
2022-09-04T10:00:30.694Z,27.80
2022-09-04T10:04:16.265Z,28.10
2022-09-04T10:07:48.069Z,28.10
2022-09-04T10:11:20.499Z,28.40
2022-09-04T10:15:08.827Z,28.60
2022-09-04T10:18:48.023Z,28.70
2022-09-04T10:22:14.731Z,28.80
2022-09-04T10:26:03.738Z,29.00
2022-09-04T10:29:44.741Z,29.10
2022-09-04T10:33:16.514Z,29.20
2022-09-04T10:36:15.240Z,29.20
2022-09-04T10:39:40.194Z,29.20
2022-09-04T10:42:37.137Z,29.20
2022-09-04T10:45:27.543Z,29.30
2022-09-04T10:48:59.813Z,29.40
2022-09-04T10:52:24.643Z,29.50
2022-09-04T10:55:26.619Z,29.70
2022-09-04T10:58:30.817Z,29.90
2022-09-04T11:02:13.552Z,30.20
2022-09-04T11:05:41.544Z,30.40
2022-09-04T11:09:00.640Z,30.40
2022-09-04T11:12:09.409Z,30.40
2022-09-04T11:15:19.244Z,30.40
2022-09-04T11:18:55.205Z,30.20
2022-09-04T11:22:19.873Z,30.10
2022-09-04T11:26:07.130Z,30.10
2022-09-04T11:29:21.580Z,30.00
2022-09-04T11:32:32.060Z,29.80
2022-09-04T11:36:00.681Z,29.60
2022-09-04T11:39:45.266Z,29.40
2022-09-04T11:42:41.200Z,29.20
2022-09-04T11:45:59.591Z,29.20
2022-09-04T11:49:12.682Z,29.10
2022-09-04T11:52:16.410Z,29.30
2022-09-04T11:55:28.871Z,29.30
2022-09-04T11:58:49.975Z,29.20
2022-09-04T12:02:01.167Z,29.20
2022-09-04T12:05:36.292Z,29.10
2022-09-04T12:08:42.124Z,29.10
2022-09-04T12:12:00.430Z,29.20
2022-09-04T12:15:24.904Z,29.10
2022-09-04T12:18:44.710Z,29.10
2022-09-04T12:22:03.582Z,29.10
2022-09-04T12:25:18.814Z,29.20
2022-09-04T12:28:53.433Z,29.30
2022-09-04T12:32:37.679Z,29.50
2022-09-04T12:36:21.130Z,29.80
2022-09-04T12:40:27.635Z,30.10
2022-09-04T12:43:42.709Z,30.40
2022-09-04T12:46:57.685Z,30.80
2022-09-04T12:50:16.203Z,31.10
2022-09-04T12:53:26.649Z,31.20
2022-09-04T12:56:22.810Z,31.40
2022-09-04T12:59:27.912Z,31.40
2022-09-04T13:02:28.632Z,31.50
2022-09-04T13:05:41.770Z,31.50
2022-09-04T13:08:48.285Z,31.60
2022-09-04T13:11:48.664Z,31.60
2022-09-04T13:15:08.772Z,31.60
2022-09-04T13:18:12.615Z,31.60
2022-09-04T13:21:08.997Z,31.50
2022-09-04T13:24:16.117Z,31.50
2022-09-04T13:27:21.470Z,31.50
2022-09-04T13:30:11.744Z,31.60
2022-09-04T13:33:12.912Z,31.70
2022-09-04T13:36:11.310Z,31.60
2022-09-04T13:39:49.269Z,31.60
2022-09-04T13:43:08.203Z,31.60
2022-09-04T13:45:59.323Z,31.60
2022-09-04T13:48:52.244Z,31.60
2022-09-04T13:51:44.832Z,31.70
2022-09-04T13:54:35.531Z,31.70
2022-09-04T13:57:28.005Z,31.70
2022-09-04T14:00:17.476Z,31.60
2022-09-04T14:03:11.648Z,31.60
2022-09-04T14:06:10.141Z,31.60
2022-09-04T14:09:05.598Z,31.60
2022-09-04T14:12:13.570Z,31.60
2022-09-04T14:15:40.278Z,31.70
2022-09-04T14:18:47.999Z,31.80
2022-09-04T14:22:09.432Z,31.90
2022-09-04T14:25:06.582Z,32.00
2022-09-04T14:28:13.966Z,32.00
2022-09-04T14:31:10.670Z,32.00
2022-09-04T14:34:05.391Z,32.10
2022-09-04T14:37:08.132Z,32.20
2022-09-04T14:40:02.915Z,32.30
2022-09-04T14:42:58.117Z,32.30
2022-09-04T14:46:06.613Z,32.20
2022-09-04T14:49:02.145Z,32.10
2022-09-04T14:51:52.425Z,32.10
2022-09-04T14:54:46.761Z,32.10
2022-09-04T14:57:38.782Z,32.00
2022-09-04T15:00:29.915Z,31.90
2022-09-04T15:03:21.012Z,31.80
2022-09-04T15:06:16.162Z,31.80
2022-09-04T15:09:21.118Z,32.00
2022-09-04T15:12:25.033Z,31.90
2022-09-04T15:15:18.837Z,31.90
2022-09-04T15:18:16.113Z,31.90
2022-09-04T15:21:17.260Z,32.00
2022-09-04T15:24:18.258Z,32.00
2022-09-04T15:27:13.881Z,32.00
2022-09-04T15:30:07.109Z,31.90
2022-09-04T15:33:05.333Z,31.80
2022-09-04T15:36:05.368Z,31.80
2022-09-04T15:38:55.334Z,31.70
2022-09-04T15:41:46.016Z,31.70
2022-09-04T15:44:40.154Z,31.60
2022-09-04T15:47:47.568Z,31.50
2022-09-04T15:50:38.922Z,31.50
2022-09-04T15:53:29.417Z,31.50
2022-09-04T15:56:36.910Z,31.50
2022-09-04T15:59:32.354Z,31.20
2022-09-04T16:02:36.415Z,31.40
2022-09-04T16:05:28.363Z,31.40
2022-09-04T16:08:23.605Z,31.30
2022-09-04T16:11:22.436Z,31.30
2022-09-04T16:14:17.427Z,31.40
2022-09-04T16:17:12.058Z,31.50
2022-09-04T16:20:08.943Z,31.30
2022-09-04T16:23:01.808Z,31.30
2022-09-04T16:25:51.800Z,31.30
2022-09-04T16:28:46.517Z,31.30
2022-09-04T16:31:35.853Z,31.30
2022-09-04T16:34:27.636Z,31.20
2022-09-04T16:37:21.834Z,31.20
2022-09-04T16:40:25.700Z,31.20
2022-09-04T16:43:22.848Z,31.20
2022-09-04T16:46:15.176Z,31.20
2022-09-04T16:49:08.246Z,31.10
2022-09-04T16:51:59.366Z,31.10
2022-09-04T16:54:51.809Z,31.00
2022-09-04T16:57:49.519Z,31.00
2022-09-04T17:01:13.716Z,30.90
2022-09-04T17:04:21.660Z,30.90
2022-09-04T17:07:21.036Z,30.90
2022-09-04T17:10:25.752Z,30.90
2022-09-04T17:13:27.975Z,31.00
2022-09-04T17:16:21.871Z,30.80
2022-09-04T17:19:13.937Z,30.70
2022-09-04T17:28:59.806Z,30.60
2022-09-04T17:29:03.303Z,30.50
2022-09-04T17:32:41.117Z,30.20
2022-09-04T17:40:41.261Z,30.00
2022-09-04T17:40:52.535Z,29.80
2022-09-04T17:42:04.638Z,29.50
2022-09-04T17:45:03.466Z,29.30
2022-09-04T17:48:02.273Z,29.10
2022-09-04T17:50:53.832Z,28.80
2022-09-04T17:53:48.207Z,28.50
2022-09-04T17:56:40.440Z,28.30
2022-09-04T17:59:35.374Z,28.00
2022-09-04T18:02:28.842Z,27.80
2022-09-04T18:05:21.781Z,27.50
2022-09-04T18:08:14.561Z,27.30
2022-09-04T18:11:07.207Z,27.10
2022-09-04T18:14:01.192Z,26.90
2022-09-04T18:17:11.606Z,26.70
2022-09-04T18:20:11.081Z,26.50
2022-09-04T18:23:50.843Z,26.20
2022-09-04T18:26:42.373Z,26.00
2022-09-04T18:32:55.674Z,25.80
2022-09-04T18:37:26.905Z,25.60
2022-09-04T18:37:27.098Z,25.40
2022-09-04T18:39:25.429Z,25.30
2022-09-04T18:50:23.192Z,25.20
2022-09-04T18:50:31.761Z,25.00
2022-09-04T18:50:52.510Z,24.90
2022-09-04T18:52:12.297Z,24.70
2022-09-04T18:55:03.615Z,24.70
2022-09-04T18:57:58.864Z,24.40
2022-09-04T19:00:50.516Z,24.40
2022-09-04T19:03:43.277Z,24.30
2022-09-04T19:06:38.542Z,24.10
2022-09-04T19:09:48.540Z,24.00
2022-09-04T19:12:58.684Z,23.90
2022-09-04T19:15:58.324Z,23.80
2022-09-04T19:18:51.214Z,23.70
2022-09-04T19:21:42.544Z,23.60
2022-09-04T19:24:35.754Z,23.60
2022-09-04T19:27:30.449Z,23.50
2022-09-04T19:30:23.723Z,23.40
2022-09-04T19:33:17.870Z,23.40
2022-09-04T19:36:10.586Z,23.30
2022-09-04T19:45:56.309Z,23.30
2022-09-04T19:46:02.731Z,23.20
2022-09-04T19:46:31.710Z,22.90
2022-09-04T19:51:30.895Z,23.30
2022-09-04T19:53:32.087Z,23.10
2022-09-04T19:55:55.504Z,23.00
2022-09-04T19:58:51.631Z,23.00
2022-09-04T20:01:45.006Z,23.00
2022-09-04T20:04:37.218Z,22.90
2022-09-04T20:07:42.413Z,22.90
2022-09-04T20:10:39.564Z,22.90
2022-09-04T20:13:34.832Z,22.80
2022-09-04T20:20:04.225Z,22.80
2022-09-04T20:23:00.251Z,22.80
2022-09-04T20:25:58.099Z,22.70
2022-09-04T20:29:03.176Z,22.90
2022-09-04T20:33:18.568Z,22.70
2022-09-04T20:36:09.581Z,22.70
2022-09-04T20:39:02.063Z,22.70
2022-09-04T20:41:53.077Z,22.80
2022-09-04T20:45:44.131Z,22.60
2022-09-04T20:52:40.935Z,22.60
2022-09-04T20:52:57.775Z,22.70
2022-09-04T20:54:56.203Z,22.80
2022-09-04T21:03:14.758Z,23.00
2022-09-04T21:03:21.972Z,23.10
2022-09-04T21:04:54.293Z,23.20
2022-09-04T21:07:45.692Z,23.20
2022-09-04T21:10:36.922Z,23.20
2022-09-04T21:13:30.741Z,23.40
2022-09-04T21:16:29.433Z,23.20
2022-09-04T21:20:02.953Z,23.20
2022-09-04T21:23:15.046Z,23.10
2022-09-04T21:26:09.818Z,23.10
2022-09-04T21:29:25.080Z,23.20
2022-09-04T21:32:47.052Z,23.20
2022-09-04T21:35:38.997Z,23.20
2022-09-04T21:39:00.320Z,23.10
2022-09-04T21:42:11.317Z,23.10
2022-09-04T21:45:28.525Z,23.10
2022-09-04T21:48:41.124Z,23.10
2022-09-04T21:51:54.702Z,23.00
2022-09-04T21:57:23.876Z,23.00
2022-09-04T22:02:36.342Z,23.00
2022-09-04T22:02:40.620Z,22.90
2022-09-04T22:05:12.495Z,23.00
2022-09-04T22:13:29.942Z,22.80
2022-09-04T22:13:40.215Z,22.70
2022-09-04T22:14:44.096Z,22.70
2022-09-04T22:17:57.137Z,22.60
2022-09-04T22:20:55.435Z,22.60
2022-09-04T22:24:09.201Z,22.60
2022-09-04T22:28:07.819Z,22.60
2022-09-04T22:31:38.879Z,22.60
2022-09-04T22:35:11.596Z,22.50
2022-09-04T22:38:32.926Z,22.50
2022-09-04T22:41:43.200Z,22.50
2022-09-04T22:44:42.035Z,22.50
2022-09-04T22:47:43.292Z,22.40
2022-09-04T22:50:49.974Z,22.40
2022-09-04T22:53:57.165Z,22.40
2022-09-04T22:56:54.218Z,22.40
2022-09-04T23:00:11.906Z,22.30
2022-09-04T23:03:29.762Z,22.30
2022-09-04T23:11:08.346Z,22.30
2022-09-04T23:13:53.398Z,22.30
2022-09-04T23:14:06.343Z,22.20
2022-09-04T23:17:19.186Z,22.30
2022-09-04T23:26:33.825Z,22.20
2022-09-04T23:26:49.985Z,22.10
2022-09-04T23:27:41.221Z,22.00
2022-09-04T23:30:33.270Z,21.90
2022-09-04T23:33:49.787Z,21.90
2022-09-04T23:36:55.344Z,21.80
2022-09-04T23:40:31.857Z,21.80
2022-09-04T23:44:05.941Z,21.70
2022-09-04T23:47:46.510Z,21.70
2022-09-04T23:50:28.710Z,21.60
2022-09-04T23:53:27.709Z,21.60
2022-09-04T23:56:23.040Z,21.60
2022-09-04T23:59:36.830Z,21.50
